Time;durP1;ratioP1;P1;durP2;ratioP2;P2;SDS_P1;SDS_P2;PMS_P1;PMS_P2;Temp;Humidity;BMP_temperature;BMP_pressure;BME280_temperature;BME280_humidity;BME280_pressure;Samples;Min_cycle;Max_cycle;Signal;HPM_P1;HPM_P2
2023/10/27 00:02:03;;;;;;;;;;;17.20;63.70;;;;;;4996427;28;86380;-44
2023/10/27 00:04:29;;;;;;;;;;;17.20;63.70;;;;;;4992791;28;87122;-45
2023/10/27 00:06:55;;;;;;;;;;;17.20;63.70;;;;;;4994391;28;87900;-45
2023/10/27 00:09:20;;;;;;;;;;;17.20;63.70;;;;;;4993793;28;88187;-43
2023/10/27 00:11:46;;;;;;;;;;;17.20;63.80;;;;;;4994252;28;88397;-43
2023/10/27 00:14:11;;;;;;;;;;;17.20;63.80;;;;;;4993113;28;88172;-44
2023/10/27 00:16:37;;;;;;;;;;;17.20;63.90;;;;;;4995152;28;87135;-43
2023/10/27 00:19:02;;;;;;;;;;;17.10;63.80;;;;;;4994733;28;87446;-44
2023/10/27 00:21:28;;;;;;;;;;;17.10;64.00;;;;;;4997280;28;86902;-44
2023/10/27 00:23:53;;;;;;;;;;;17.10;64.00;;;;;;4992865;28;87287;-44
2023/10/27 00:26:19;;;;;;;;;;;17.10;64.10;;;;;;4994897;28;86883;-44
2023/10/27 00:28:46;;;;;;;;;;;17.10;64.10;;;;;;4993413;28;87104;-44
2023/10/27 00:31:12;;;;;;;;;;;17.10;64.10;;;;;;4993120;28;88801;-46
2023/10/27 00:33:37;;;;;;;;;;;17.10;64.10;;;;;;4993508;28;90265;-45
2023/10/27 00:36:03;;;;;;;;;;;17.10;64.10;;;;;;4992642;28;87191;-44
2023/10/27 00:38:30;;;;;;;;;;;17.10;64.00;;;;;;4995292;28;89545;-44
2023/10/27 00:40:55;;;;;;;;;;;17.10;64.20;;;;;;4995153;28;88143;-44
2023/10/27 00:43:21;;;;;;;;;;;17.10;64.10;;;;;;4994264;28;87318;-45
2023/10/27 00:45:50;;;;;;;;;;;17.10;64.10;;;;;;4993336;28;87857;-44
2023/10/27 00:48:17;;;;;;;;;;;17.10;64.00;;;;;;4991623;28;87162;-44
2023/10/27 00:50:42;;;;;;;;;;;17.10;64.10;;;;;;4995209;28;87596;-44
2023/10/27 00:53:08;;;;;;;;;;;17.10;64.10;;;;;;4991585;28;88007;-44
2023/10/27 00:55:35;;;;;;;;;;;17.10;64.00;;;;;;4994343;28;87134;-44
2023/10/27 00:58:01;;;;;;;;;;;17.10;64.10;;;;;;4992336;28;88030;-44
2023/10/27 01:00:28;;;;;;;;;;;17.10;64.00;;;;;;4992491;28;88277;-44
2023/10/27 01:02:54;;;;;;;;;;;17.10;64.00;;;;;;4997235;28;87102;-44
2023/10/27 01:05:19;;;;;;;;;;;17.10;64.10;;;;;;4991371;28;88086;-45
2023/10/27 01:07:45;;;;;;;;;;;17.10;64.20;;;;;;4994083;28;87231;-43
2023/10/27 01:10:10;;;;;;;;;;;17.00;64.10;;;;;;4991871;28;87148;-43
2023/10/27 01:12:36;;;;;;;;;;;17.10;64.10;;;;;;4993814;28;88300;-44
2023/10/27 01:15:01;;;;;;;;;;;17.00;64.10;;;;;;4993234;28;86360;-44
2023/10/27 01:17:27;;;;;;;;;;;17.10;64.20;;;;;;4993080;28;87671;-44
2023/10/27 01:19:52;;;;;;;;;;;17.10;64.20;;;;;;4993402;28;88192;-43
2023/10/27 01:22:18;;;;;;;;;;;17.00;64.20;;;;;;4990472;28;88376;-44
2023/10/27 01:24:43;;;;;;;;;;;17.10;64.20;;;;;;4997341;28;87532;-44
2023/10/27 01:27:09;;;;;;;;;;;17.00;64.20;;;;;;4991275;28;87163;-44
2023/10/27 01:29:34;;;;;;;;;;;17.00;64.20;;;;;;4994123;28;87435;-44
2023/10/27 01:32:00;;;;;;;;;;;17.00;64.20;;;;;;4991934;28;87211;-44
2023/10/27 01:34:25;;;;;;;;;;;17.00;64.20;;;;;;4993043;28;87136;-44
2023/10/27 01:36:51;;;;;;;;;;;17.00;64.20;;;;;;4992743;28;87331;-44
2023/10/27 01:39:17;;;;;;;;;;;17.00;64.30;;;;;;4992149;28;87403;-44
2023/10/27 01:41:42;;;;;;;;;;;17.00;64.20;;;;;;4994074;28;87263;-44
2023/10/27 01:44:08;;;;;;;;;;;17.00;64.30;;;;;;4990954;28;86996;-44
2023/10/27 01:46:33;;;;;;;;;;;17.00;64.30;;;;;;4995933;28;88609;-44
2023/10/27 01:48:59;;;;;;;;;;;17.00;64.40;;;;;;4991882;28;88444;-43
2023/10/27 01:51:24;;;;;;;;;;;16.90;64.40;;;;;;4993237;28;87287;-43
2023/10/27 01:53:50;;;;;;;;;;;16.90;64.30;;;;;;4992433;28;87162;-43
2023/10/27 01:56:15;;;;;;;;;;;16.90;64.30;;;;;;4993384;28;87548;-43
2023/10/27 01:58:44;;;;;;;;;;;16.90;64.30;;;;;;4990650;28;87984;-44
2023/10/27 02:01:09;;;;;;;;;;;17.00;64.30;;;;;;4993204;28;87138;-44
2023/10/27 02:03:35;;;;;;;;;;;16.90;64.40;;;;;;4991747;28;86607;-43
2023/10/27 02:06:00;;;;;;;;;;;16.90;64.20;;;;;;4992876;28;88167;-44
2023/10/27 02:08:26;;;;;;;;;;;16.90;64.30;;;;;;4995063;28;87065;-43
2023/10/27 02:10:52;;;;;;;;;;;16.90;64.30;;;;;;4991105;28;88865;-43
2023/10/27 02:13:17;;;;;;;;;;;16.90;64.30;;;;;;4993005;28;87442;-43
2023/10/27 02:15:43;;;;;;;;;;;16.90;64.20;;;;;;4991013;28;87538;-44
2023/10/27 02:18:08;;;;;;;;;;;16.90;64.40;;;;;;4993605;28;87324;-43
2023/10/27 02:20:35;;;;;;;;;;;16.90;64.20;;;;;;4990706;28;87128;-43
2023/10/27 02:23:01;;;;;;;;;;;16.90;64.20;;;;;;4993947;28;88932;-44
2023/10/27 02:25:26;;;;;;;;;;;16.90;64.10;;;;;;4991667;28;88056;-44
2023/10/27 02:27:52;;;;;;;;;;;16.90;64.20;;;;;;4995234;28;86375;-43
2023/10/27 02:30:17;;;;;;;;;;;16.90;64.20;;;;;;4992544;28;87257;-47
2023/10/27 02:32:43;;;;;;;;;;;16.90;64.80;;;;;;4990706;28;87061;-43
2023/10/27 02:35:08;;;;;;;;;;;16.90;64.20;;;;;;4993234;28;87946;-43
2023/10/27 02:37:34;;;;;;;;;;;16.90;64.10;;;;;;4989576;28;87971;-44
2023/10/27 02:39:59;;;;;;;;;;;16.90;64.20;;;;;;4992995;28;87236;-44
2023/10/27 02:42:25;;;;;;;;;;;16.90;64.20;;;;;;4991545;28;87004;-44
2023/10/27 02:44:50;;;;;;;;;;;16.80;64.10;;;;;;4991697;28;88014;-44
2023/10/27 02:47:16;;;;;;;;;;;16.90;64.10;;;;;;4999717;28;87035;-44
2023/10/27 02:49:41;;;;;;;;;;;16.90;64.10;;;;;;4993498;28;87452;-44
2023/10/27 02:52:08;;;;;;;;;;;16.90;64.10;;;;;;4992841;28;86429;-44
2023/10/27 02:54:33;;;;;;;;;;;16.80;64.10;;;;;;4993657;28;87037;-43
2023/10/27 02:56:59;;;;;;;;;;;16.80;64.10;;;;;;4990461;28;88312;-43
2023/10/27 02:59:24;;;;;;;;;;;16.80;64.10;;;;;;4991844;28;88114;-43
2023/10/27 03:01:52;;;;;;;;;;;16.80;64.10;;;;;;4991416;28;88471;-45
2023/10/27 03:04:19;;;;;;;;;;;16.80;64.20;;;;;;4990544;28;89235;-43
2023/10/27 03:06:44;;;;;;;;;;;16.80;64.20;;;;;;4993156;28;87091;-44
2023/10/27 03:09:10;;;;;;;;;;;16.80;64.20;;;;;;4990292;28;88945;-43
2023/10/27 03:11:35;;;;;;;;;;;16.80;64.10;;;;;;4997718;28;88053;-44
2023/10/27 03:14:01;;;;;;;;;;;16.80;64.20;;;;;;4994170;28;86973;-45
2023/10/27 03:16:26;;;;;;;;;;;16.80;64.20;;;;;;4995366;28;87614;-43
2023/10/27 03:18:53;;;;;;;;;;;16.80;64.10;;;;;;4995277;28;87501;-43
2023/10/27 03:21:19;;;;;;;;;;;16.80;64.20;;;;;;4994013;28;87232;-43
2023/10/27 03:23:44;;;;;;;;;;;16.80;64.30;;;;;;4995180;28;89063;-44
2023/10/27 03:26:10;;;;;;;;;;;16.80;64.30;;;;;;4992866;28;87208;-43
2023/10/27 03:28:35;;;;;;;;;;;16.80;64.30;;;;;;4996390;28;87581;-43
2023/10/27 03:31:01;;;;;;;;;;;16.80;64.20;;;;;;4993351;28;88489;-45
2023/10/27 03:33:27;;;;;;;;;;;16.70;64.20;;;;;;4998129;28;86993;-43
2023/10/27 03:35:52;;;;;;;;;;;16.70;64.30;;;;;;4994529;28;88264;-43
2023/10/27 03:38:18;;;;;;;;;;;16.70;64.30;;;;;;4993436;28;87610;-43
2023/10/27 03:40:44;;;;;;;;;;;16.70;64.30;;;;;;4995951;28;89041;-43
2023/10/27 03:43:10;;;;;;;;;;;16.70;64.30;;;;;;4992197;28;87819;-44
2023/10/27 03:45:36;;;;;;;;;;;16.70;64.30;;;;;;4996368;28;87142;-43
2023/10/27 03:48:02;;;;;;;;;;;16.70;64.30;;;;;;4992852;28;87999;-43
2023/10/27 03:50:27;;;;;;;;;;;16.70;64.20;;;;;;4994494;28;88229;-43
2023/10/27 03:52:53;;;;;;;;;;;16.70;64.20;;;;;;4994313;28;87236;-45
2023/10/27 03:55:18;;;;;;;;;;;16.70;64.20;;;;;;4997747;28;87383;-43
2023/10/27 03:57:44;;;;;;;;;;;16.70;64.20;;;;;;4993396;28;87170;-43
2023/10/27 04:00:10;;;;;;;;;;;16.70;64.20;;;;;;4996146;28;87285;-43
2023/10/27 04:02:36;;;;;;;;;;;16.70;64.30;;;;;;4992529;28;88215;-43
2023/10/27 04:05:03;;;;;;;;;;;16.70;64.20;;;;;;4995751;28;86364;-44
2023/10/27 04:07:29;;;;;;;;;;;16.70;64.20;;;;;;4993944;28;87038;-43
2023/10/27 04:09:55;;;;;;;;;;;16.70;64.30;;;;;;4993727;28;88259;-44
2023/10/27 04:12:20;;;;;;;;;;;16.70;64.40;;;;;;4992472;28;88080;-43
2023/10/27 04:14:45;;;;;;;;;;;16.70;64.40;;;;;;4995453;28;88496;-43
2023/10/27 04:17:11;;;;;;;;;;;16.70;64.30;;;;;;4994890;28;88319;-43
2023/10/27 04:19:36;;;;;;;;;;;16.70;64.30;;;;;;4995652;28;89002;-43
2023/10/27 04:22:02;;;;;;;;;;;16.70;64.30;;;;;;4992003;28;88390;-43
2023/10/27 04:24:28;;;;;;;;;;;16.70;64.30;;;;;;4994759;28;87186;-44
2023/10/27 04:26:53;;;;;;;;;;;16.70;64.30;;;;;;4994098;28;86969;-43
2023/10/27 04:29:19;;;;;;;;;;;16.70;64.30;;;;;;4994506;28;87204;-45
2023/10/27 04:31:45;;;;;;;;;;;16.70;64.20;;;;;;4992891;28;87147;-45
2023/10/27 04:34:10;;;;;;;;;;;16.60;64.30;;;;;;4995330;28;88769;-44
2023/10/27 04:36:36;;;;;;;;;;;16.60;64.40;;;;;;4993992;28;88920;-44
2023/10/27 04:39:03;;;;;;;;;;;16.60;64.40;;;;;;4994912;28;88378;-43
2023/10/27 04:41:30;;;;;;;;;;;16.60;64.30;;;;;;4992865;28;88114;-43
2023/10/27 04:43:56;;;;;;;;;;;16.60;64.40;;;;;;4993116;28;87186;-44
2023/10/27 04:46:21;;;;;;;;;;;16.60;64.50;;;;;;4994487;28;87326;-44
2023/10/27 04:48:47;;;;;;;;;;;16.60;64.40;;;;;;4990430;28;91241;-44
2023/10/27 04:51:13;;;;;;;;;;;16.60;64.40;;;;;;4994916;28;87173;-44
2023/10/27 04:53:38;;;;;;;;;;;16.60;64.40;;;;;;4990026;28;87361;-44
2023/10/27 04:56:04;;;;;;;;;;;16.60;64.40;;;;;;4990519;28;88198;-45
2023/10/27 04:58:29;;;;;;;;;;;16.60;64.40;;;;;;4993315;28;87977;-44
2023/10/27 05:00:55;;;;;;;;;;;16.60;64.40;;;;;;4992463;28;88963;-43
2023/10/27 05:03:20;;;;;;;;;;;16.60;64.40;;;;;;4990907;28;87122;-43
2023/10/27 05:05:46;;;;;;;;;;;16.60;64.40;;;;;;4987397;28;87531;-43
2023/10/27 05:08:11;;;;;;;;;;;16.60;64.40;;;;;;4989090;28;87595;-44
2023/10/27 05:10:40;;;;;;;;;;;16.60;64.60;;;;;;4994909;28;87157;-44
2023/10/27 05:13:06;;;;;;;;;;;16.60;64.40;;;;;;4991756;28;88851;-43
2023/10/27 05:15:31;;;;;;;;;;;16.60;64.50;;;;;;4990834;28;88736;-43
2023/10/27 05:18:04;;;;;;;;;;;16.50;64.40;;;;;;4990676;28;86356;-44
2023/10/27 05:20:30;;;;;;;;;;;16.60;64.50;;;;;;4994167;28;86956;-44
2023/10/27 05:22:55;;;;;;;;;;;16.60;64.50;;;;;;4987938;28;87099;-43
2023/10/27 05:25:22;;;;;;;;;;;16.60;64.40;;;;;;4995967;28;88076;-43
2023/10/27 05:27:47;;;;;;;;;;;16.60;64.50;;;;;;4997924;28;87170;-45
2023/10/27 05:30:13;;;;;;;;;;;16.60;64.50;;;;;;4993174;28;87136;-43
2023/10/27 05:32:39;;;;;;;;;;;16.60;64.50;;;;;;4990071;28;88898;-44
2023/10/27 05:35:04;;;;;;;;;;;16.60;64.60;;;;;;4988008;28;88000;-45
2023/10/27 05:37:30;;;;;;;;;;;16.60;64.60;;;;;;4990768;28;87612;-44
2023/10/27 05:39:55;;;;;;;;;;;16.60;64.50;;;;;;4993033;28;88602;-43
2023/10/27 05:42:21;;;;;;;;;;;16.60;64.40;;;;;;4991006;28;87296;-47
2023/10/27 05:44:46;;;;;;;;;;;16.60;64.50;;;;;;4987902;28;87106;-44
2023/10/27 05:47:12;;;;;;;;;;;16.60;64.50;;;;;;4992505;28;88215;-44
2023/10/27 05:49:37;;;;;;;;;;;16.50;64.50;;;;;;4989089;28;89989;-43
2023/10/27 05:52:03;;;;;;;;;;;16.60;64.50;;;;;;4984792;28;87894;-46
2023/10/27 05:54:29;;;;;;;;;;;16.60;64.50;;;;;;4993103;28;87202;-44
2023/10/27 05:56:55;;;;;;;;;;;16.60;64.50;;;;;;4990854;28;86939;-43
2023/10/27 05:59:20;;;;;;;;;;;16.60;64.50;;;;;;4990757;28;87388;-44
2023/10/27 06:01:48;;;;;;;;;;;16.60;64.40;;;;;;4986648;28;88203;-44
2023/10/27 06:04:17;;;;;;;;;;;16.60;64.50;;;;;;4992897;28;87110;-43
2023/10/27 06:06:42;;;;;;;;;;;16.50;64.40;;;;;;4991366;28;87646;-45
2023/10/27 06:09:08;;;;;;;;;;;16.60;64.50;;;;;;4994805;28;87946;-45
2023/10/27 06:11:34;;;;;;;;;;;16.60;64.40;;;;;;4990416;28;87179;-44
2023/10/27 06:14:00;;;;;;;;;;;16.60;64.40;;;;;;4983292;28;89993;-45
2023/10/27 06:16:25;;;;;;;;;;;16.60;64.50;;;;;;4992617;28;87240;-44
2023/10/27 06:18:54;;;;;;;;;;;16.60;64.40;;;;;;4990157;28;87392;-43
2023/10/27 06:21:19;;;;;;;;;;;16.60;64.20;;;;;;4985597;28;88287;-43
2023/10/27 06:23:45;;;;;;;;;;;16.60;64.40;;;;;;4988109;28;87097;-43
2023/10/27 06:26:11;;;;;;;;;;;16.60;64.30;;;;;;4996490;28;87136;-44
2023/10/27 06:28:36;;;;;;;;;;;16.60;64.40;;;;;;4991961;28;87844;-44
2023/10/27 06:31:04;;;;;;;;;;;16.60;64.30;;;;;;4988412;28;87497;-43
2023/10/27 06:33:33;;;;;;;;;;;16.60;64.50;;;;;;4989411;28;88262;-43
2023/10/27 06:35:59;;;;;;;;;;;16.60;64.40;;;;;;4992008;28;87087;-43
2023/10/27 06:38:25;;;;;;;;;;;16.60;64.40;;;;;;4987305;28;88853;-43
2023/10/27 06:40:50;;;;;;;;;;;16.60;64.50;;;;;;4990312;28;88815;-44
2023/10/27 06:43:16;;;;;;;;;;;16.60;64.50;;;;;;4990337;28;87074;-44
2023/10/27 06:45:41;;;;;;;;;;;16.60;64.60;;;;;;4993018;28;87348;-43
2023/10/27 06:48:07;;;;;;;;;;;16.60;64.50;;;;;;4989321;28;87156;-45
2023/10/27 06:50:33;;;;;;;;;;;16.60;64.60;;;;;;4995139;28;88593;-43
2023/10/27 06:52:58;;;;;;;;;;;16.60;64.70;;;;;;4992849;28;88092;-45
2023/10/27 06:55:24;;;;;;;;;;;16.60;64.60;;;;;;4997918;28;86365;-44
2023/10/27 06:57:49;;;;;;;;;;;16.60;64.50;;;;;;4992020;28;87184;-45
2023/10/27 07:00:15;;;;;;;;;;;16.60;64.50;;;;;;4991244;28;89090;-45
2023/10/27 07:02:41;;;;;;;;;;;16.60;64.50;;;;;;4992461;28;88118;-43
2023/10/27 07:05:08;;;;;;;;;;;16.60;64.40;;;;;;4996405;28;87535;-44
2023/10/27 07:07:34;;;;;;;;;;;16.60;64.40;;;;;;4996362;28;87942;-45
2023/10/27 07:09:59;;;;;;;;;;;16.60;64.40;;;;;;4991072;28;88146;-44
2023/10/27 07:12:25;;;;;;;;;;;16.60;64.50;;;;;;4996064;28;88146;-43
2023/10/27 07:14:50;;;;;;;;;;;16.60;64.40;;;;;;4993415;28;87214;-44
2023/10/27 07:17:16;;;;;;;;;;;16.60;64.40;;;;;;4990730;28;87546;-44
2023/10/27 07:19:41;;;;;;;;;;;16.60;64.40;;;;;;4992089;28;87437;-44
2023/10/27 07:22:07;;;;;;;;;;;16.60;64.40;;;;;;4995586;28;87158;-45
2023/10/27 07:24:32;;;;;;;;;;;16.60;64.50;;;;;;4992027;28;87494;-43
2023/10/27 07:26:58;;;;;;;;;;;16.60;64.30;;;;;;4992055;28;89130;-44
2023/10/27 07:29:23;;;;;;;;;;;16.60;64.40;;;;;;4995587;28;87393;-44
2023/10/27 07:31:49;;;;;;;;;;;16.60;64.40;;;;;;4995935;28;88261;-44
2023/10/27 07:34:14;;;;;;;;;;;16.60;64.50;;;;;;4992170;28;87289;-44
2023/10/27 07:36:40;;;;;;;;;;;16.60;64.40;;;;;;4990936;28;87472;-44
2023/10/27 07:39:06;;;;;;;;;;;16.60;64.40;;;;;;4994875;28;89536;-43
2023/10/27 07:41:34;;;;;;;;;;;16.60;64.40;;;;;;4992834;28;87237;-44
2023/10/27 07:44:00;;;;;;;;;;;16.60;64.50;;;;;;4994141;28;89048;-44
2023/10/27 07:46:26;;;;;;;;;;;16.60;64.40;;;;;;4992681;28;87848;-44
2023/10/27 07:48:51;;;;;;;;;;;16.70;64.40;;;;;;4992688;28;87219;-45
2023/10/27 07:51:17;;;;;;;;;;;16.70;64.40;;;;;;4992617;28;89873;-44
2023/10/27 07:53:42;;;;;;;;;;;16.70;64.50;;;;;;4989323;28;87211;-44
2023/10/27 07:56:08;;;;;;;;;;;16.70;64.40;;;;;;4989887;28;87369;-44
2023/10/27 07:58:34;;;;;;;;;;;16.70;64.40;;;;;;4993844;28;87170;-44
2023/10/27 08:00:59;;;;;;;;;;;16.70;64.30;;;;;;4990133;28;87202;-44
2023/10/27 08:03:25;;;;;;;;;;;16.70;64.30;;;;;;4991689;28;87471;-43
2023/10/27 08:05:50;;;;;;;;;;;16.70;64.30;;;;;;4993991;28;91377;-45
2023/10/27 08:08:17;;;;;;;;;;;16.70;64.50;;;;;;4992804;28;86688;-43
2023/10/27 08:10:46;;;;;;;;;;;16.70;64.30;;;;;;4992703;28;88965;-44
2023/10/27 08:13:12;;;;;;;;;;;16.70;64.40;;;;;;4992702;28;88972;-47
2023/10/27 08:15:37;;;;;;;;;;;16.70;64.30;;;;;;4991948;28;88304;-43
2023/10/27 08:18:03;;;;;;;;;;;16.70;64.50;;;;;;4994918;28;88090;-44
2023/10/27 08:20:29;;;;;;;;;;;16.70;64.40;;;;;;4986741;28;87920;-44
2023/10/27 08:22:55;;;;;;;;;;;16.70;64.40;;;;;;4992928;28;87834;-45
2023/10/27 08:25:22;;;;;;;;;;;16.70;64.50;;;;;;4992150;28;88279;-45
2023/10/27 08:27:48;;;;;;;;;;;16.70;64.40;;;;;;4993790;28;87561;-45
2023/10/27 08:30:14;;;;;;;;;;;16.70;64.60;;;;;;4988804;28;88872;-45
2023/10/27 08:32:40;;;;;;;;;;;16.70;64.50;;;;;;4990012;28;87326;-44
2023/10/27 08:35:06;;;;;;;;;;;16.70;64.50;;;;;;4995451;28;87114;-45
2023/10/27 08:37:31;;;;;;;;;;;16.70;64.70;;;;;;4991908;28;87377;-44
2023/10/27 08:39:57;;;;;;;;;;;16.80;64.60;;;;;;4991793;28;88163;-45
2023/10/27 08:42:22;;;;;;;;;;;16.80;64.70;;;;;;4989979;28;88940;-43
2023/10/27 08:44:48;;;;;;;;;;;16.70;64.80;;;;;;4993998;28;88169;-44
2023/10/27 08:47:14;;;;;;;;;;;16.80;64.60;;;;;;4991488;28;87545;-45
2023/10/27 08:49:39;;;;;;;;;;;16.80;64.70;;;;;;4994467;28;87651;-44
2023/10/27 08:52:07;;;;;;;;;;;16.80;64.70;;;;;;4990929;28;88437;-45
2023/10/27 08:54:36;;;;;;;;;;;16.80;64.80;;;;;;4995847;28;87249;-44
2023/10/27 08:57:04;;;;;;;;;;;16.80;64.70;;;;;;4991644;28;87289;-43
2023/10/27 08:59:30;;;;;;;;;;;16.80;64.80;;;;;;4987233;28;87252;-44
2023/10/27 09:01:55;;;;;;;;;;;16.90;64.70;;;;;;4993704;28;87603;-45
2023/10/27 09:04:23;;;;;;;;;;;16.80;64.80;;;;;;4994027;28;88943;-44
2023/10/27 09:06:49;;;;;;;;;;;16.80;64.80;;;;;;4991721;28;87133;-45
2023/10/27 09:09:14;;;;;;;;;;;16.80;64.90;;;;;;4988920;28;87628;-44
2023/10/27 09:11:44;;;;;;;;;;;16.80;64.90;;;;;;4993849;28;89511;-43
2023/10/27 09:14:18;;;;;;;;;;;16.80;64.90;;;;;;4991795;28;87566;-46
2023/10/27 09:16:44;;;;;;;;;;;16.90;65.00;;;;;;4989676;28;88239;-46
2023/10/27 09:19:20;;;;;;;;;;;16.80;64.90;;;;;;4990211;28;87126;-44
2023/10/27 09:21:45;;;;;;;;;;;16.90;64.90;;;;;;4993941;28;87573;-44
2023/10/27 09:24:11;;;;;;;;;;;16.90;65.00;;;;;;4989788;28;88180;-43
2023/10/27 09:26:46;;;;;;;;;;;16.90;64.90;;;;;;4990441;28;87192;-44
2023/10/27 09:29:12;;;;;;;;;;;16.90;65.20;;;;;;4990381;28;88021;-44
2023/10/27 09:31:38;;;;;;;;;;;16.90;65.00;;;;;;4993157;28;88068;-46
2023/10/27 09:34:15;;;;;;;;;;;16.90;65.00;;;;;;4986722;28;87318;-43
2023/10/27 09:36:40;;;;;;;;;;;16.90;65.20;;;;;;4990017;28;87284;-43
2023/10/27 09:39:06;;;;;;;;;;;16.90;65.20;;;;;;4995952;28;88708;-45
2023/10/27 09:41:33;;;;;;;;;;;16.90;65.20;;;;;;4991713;28;87414;-44
2023/10/27 09:43:58;;;;;;;;;;;17.00;65.10;;;;;;4990890;28;87870;-46
2023/10/27 09:46:24;;;;;;;;;;;17.00;65.30;;;;;;4992167;28;86390;-44
2023/10/27 09:48:52;;;;;;;;;;;16.90;65.30;;;;;;4991194;28;87040;-43
2023/10/27 09:51:21;;;;;;;;;;;16.90;65.10;;;;;;4991505;28;89413;-45
2023/10/27 09:53:47;;;;;;;;;;;16.90;65.20;;;;;;4989509;28;88106;-45
2023/10/27 09:56:13;;;;;;;;;;;17.00;65.30;;;;;;4988615;28;89968;-46
2023/10/27 09:58:39;;;;;;;;;;;17.00;65.30;;;;;;4992719;28;88158;-46
2023/10/27 10:01:05;;;;;;;;;;;17.00;65.40;;;;;;4994997;28;87124;-44
2023/10/27 10:03:31;;;;;;;;;;;17.00;65.40;;;;;;4990203;28;88223;-44
2023/10/27 10:06:15;;;;;;;;;;;17.00;65.50;;;;;;4990673;28;87193;-44
2023/10/27 10:09:00;;;;;;;;;;;17.00;65.60;;;;;;4993131;28;88969;-44
2023/10/27 10:11:26;;;;;;;;;;;17.00;65.60;;;;;;4991280;28;86470;-44
2023/10/27 10:13:51;;;;;;;;;;;17.00;65.50;;;;;;4988520;28;87119;-46
2023/10/27 10:16:17;;;;;;;;;;;17.00;65.60;;;;;;4993900;28;87458;-44
2023/10/27 10:18:48;;;;;;;;;;;17.00;65.60;;;;;;4989286;28;89107;-44
2023/10/27 10:21:30;;;;;;;;;;;17.00;65.50;;;;;;4989075;28;87095;-44
2023/10/27 10:24:04;;;;;;;;;;;17.00;65.40;;;;;;4989740;28;87376;-46
2023/10/27 10:26:50;;;;;;;;;;;17.10;65.60;;;;;;4992091;28;87065;-45
2023/10/27 10:29:28;;;;;;;;;;;17.10;65.70;;;;;;4983582;28;87686;-46
2023/10/27 10:32:13;;;;;;;;;;;17.10;65.40;;;;;;4986712;28;87697;-43
2023/10/27 10:34:39;;;;;;;;;;;17.10;65.30;;;;;;4993135;28;87405;-45
2023/10/27 10:37:23;;;;;;;;;;;17.10;65.50;;;;;;4990481;28;87549;-43
2023/10/27 10:40:08;;;;;;;;;;;17.10;65.60;;;;;;4990674;28;88821;-44
2023/10/27 10:42:53;;;;;;;;;;;17.10;65.40;;;;;;4992692;28;87440;-44
2023/10/27 10:45:19;;;;;;;;;;;17.10;65.50;;;;;;4992887;28;88020;-44
2023/10/27 10:47:44;;;;;;;;;;;17.10;65.50;;;;;;4989299;28;87218;-44
2023/10/27 10:50:10;;;;;;;;;;;17.20;65.60;;;;;;4987121;28;89097;-44
2023/10/27 10:52:36;;;;;;;;;;;17.10;65.60;;;;;;4989444;28;88026;-44
2023/10/27 10:55:02;;;;;;;;;;;17.20;65.60;;;;;;4989939;28;87114;-45
2023/10/27 10:57:29;;;;;;;;;;;17.20;65.50;;;;;;4990404;28;88835;-44
2023/10/27 10:59:55;;;;;;;;;;;17.10;65.60;;;;;;4991808;28;87893;-44
2023/10/27 11:02:21;;;;;;;;;;;17.10;65.50;;;;;;4992221;28;86396;-45
2023/10/27 11:04:47;;;;;;;;;;;17.10;65.60;;;;;;4990434;28;87059;-44
2023/10/27 11:07:14;;;;;;;;;;;17.20;65.80;;;;;;4993336;28;89130;-43
2023/10/27 11:09:40;;;;;;;;;;;17.20;65.80;;;;;;4986645;28;88064;-44
2023/10/27 11:12:07;;;;;;;;;;;17.20;65.60;;;;;;4992804;28;89376;-44
2023/10/27 11:14:39;;;;;;;;;;;17.20;65.80;;;;;;4990055;28;87108;-45
2023/10/27 11:17:05;;;;;;;;;;;17.20;65.80;;;;;;4985441;28;89272;-44
2023/10/27 11:19:31;;;;;;;;;;;17.20;65.60;;;;;;4988367;28;89389;-44
2023/10/27 11:21:56;;;;;;;;;;;17.20;65.80;;;;;;4990002;28;87392;-44
2023/10/27 11:24:22;;;;;;;;;;;17.20;65.80;;;;;;4988908;28;87774;-44
2023/10/27 11:26:48;;;;;;;;;;;17.20;65.80;;;;;;4991038;28;89272;-44
2023/10/27 11:29:14;;;;;;;;;;;17.20;65.70;;;;;;4991741;28;87582;-45
2023/10/27 11:31:41;;;;;;;;;;;17.20;65.80;;;;;;4991343;28;89322;-43
2023/10/27 11:34:11;;;;;;;;;;;17.20;65.80;;;;;;4993049;28;88191;-44
2023/10/27 11:36:42;;;;;;;;;;;17.20;65.80;;;;;;4990288;28;89784;-44
2023/10/27 11:39:11;;;;;;;;;;;17.30;65.70;;;;;;4993722;28;89542;-45
2023/10/27 11:41:37;;;;;;;;;;;17.30;65.80;;;;;;4993746;28;87115;-45
2023/10/27 11:44:03;;;;;;;;;;;17.30;65.70;;;;;;4991599;28;87067;-44
2023/10/27 11:46:28;;;;;;;;;;;17.30;65.80;;;;;;4991598;28;88298;-44
2023/10/27 11:48:54;;;;;;;;;;;17.30;65.80;;;;;;4992508;28;87091;-46
2023/10/27 11:51:20;;;;;;;;;;;17.30;65.90;;;;;;4998704;28;87862;-45
2023/10/27 11:53:46;;;;;;;;;;;17.30;65.70;;;;;;4992290;28;87082;-43
2023/10/27 11:56:11;;;;;;;;;;;17.30;65.80;;;;;;4990833;28;87680;-44
2023/10/27 11:58:38;;;;;;;;;;;17.30;65.90;;;;;;4993283;28;89387;-44
2023/10/27 12:01:04;;;;;;;;;;;17.40;65.90;;;;;;4995117;28;87688;-44
2023/10/27 12:03:30;;;;;;;;;;;17.40;65.70;;;;;;4987373;28;88324;-44
2023/10/27 12:05:55;;;;;;;;;;;17.40;65.70;;;;;;4994030;28;88095;-44
2023/10/27 12:08:21;;;;;;;;;;;17.30;65.80;;;;;;4992905;28;87169;-43
2023/10/27 12:10:51;;;;;;;;;;;17.40;65.90;;;;;;4990223;28;88748;-44
2023/10/27 12:13:17;;;;;;;;;;;17.40;65.80;;;;;;4989609;28;88689;-44
2023/10/27 12:15:42;;;;;;;;;;;17.40;65.80;;;;;;4991938;28;87184;-44
2023/10/27 12:18:08;;;;;;;;;;;17.40;65.80;;;;;;4995179;28;88563;-44
2023/10/27 12:20:34;;;;;;;;;;;17.40;65.90;;;;;;5000022;28;88951;-44
2023/10/27 12:22:59;;;;;;;;;;;17.40;65.80;;;;;;4991624;28;88067;-44
2023/10/27 12:25:25;;;;;;;;;;;17.40;65.90;;;;;;4992500;28;88236;-44
2023/10/27 12:27:51;;;;;;;;;;;17.40;65.80;;;;;;4993671;28;87187;-47
2023/10/27 12:30:17;;;;;;;;;;;17.40;65.80;;;;;;4989353;28;87946;-46
2023/10/27 12:32:42;;;;;;;;;;;17.40;65.80;;;;;;4988269;28;88075;-44
2023/10/27 12:35:08;;;;;;;;;;;17.40;65.70;;;;;;4998275;28;87059;-44
2023/10/27 12:37:34;;;;;;;;;;;17.40;65.90;;;;;;4993610;28;87961;-44
2023/10/27 12:39:59;;;;;;;;;;;17.40;65.70;;;;;;4993736;28;86397;-44
2023/10/27 12:42:25;;;;;;;;;;;17.40;65.90;;;;;;4987234;28;88837;-44
2023/10/27 12:44:50;;;;;;;;;;;17.40;65.80;;;;;;4992849;28;87345;-44
2023/10/27 12:47:16;;;;;;;;;;;17.40;65.90;;;;;;4993617;28;88518;-44
2023/10/27 12:49:42;;;;;;;;;;;17.50;66.00;;;;;;4987328;28;89715;-44
2023/10/27 12:52:07;;;;;;;;;;;17.50;65.80;;;;;;4989681;28;88098;-44
2023/10/27 12:54:36;;;;;;;;;;;17.50;65.80;;;;;;4994753;28;87207;-44
2023/10/27 12:57:02;;;;;;;;;;;17.50;66.00;;;;;;4994328;28;88272;-45
2023/10/27 12:59:27;;;;;;;;;;;17.50;66.00;;;;;;4993185;28;87659;-45
2023/10/27 13:01:53;;;;;;;;;;;17.50;65.80;;;;;;4990829;28;88549;-45
2023/10/27 13:04:18;;;;;;;;;;;17.50;65.90;;;;;;4994613;28;87196;-45
2023/10/27 13:06:44;;;;;;;;;;;17.50;65.90;;;;;;4990818;28;87225;-47
2023/10/27 13:09:10;;;;;;;;;;;17.50;65.90;;;;;;4990149;28;87243;-45
2023/10/27 13:11:36;;;;;;;;;;;17.50;65.90;;;;;;4990170;28;90521;-44
2023/10/27 13:14:01;;;;;;;;;;;17.50;65.90;;;;;;4993580;28;87199;-43
2023/10/27 13:16:27;;;;;;;;;;;17.50;65.90;;;;;;4993262;28;87512;-44
2023/10/27 13:18:52;;;;;;;;;;;17.60;65.90;;;;;;4989874;28;87129;-45
2023/10/27 13:21:18;;;;;;;;;;;17.50;65.80;;;;;;4991365;28;90873;-47
2023/10/27 13:23:44;;;;;;;;;;;17.60;66.00;;;;;;4994850;28;87811;-46
2023/10/27 13:26:10;;;;;;;;;;;17.60;65.90;;;;;;4990226;28;87566;-44
2023/10/27 13:28:36;;;;;;;;;;;17.60;66.00;;;;;;4990090;28;88703;-44
2023/10/27 13:31:02;;;;;;;;;;;17.60;66.00;;;;;;4993720;28;88085;-44
2023/10/27 13:33:27;;;;;;;;;;;17.60;66.00;;;;;;4989831;28;87970;-44
2023/10/27 13:36:00;;;;;;;;;;;17.60;66.00;;;;;;4987725;28;88199;-45
2023/10/27 13:38:27;;;;;;;;;;;17.60;66.00;;;;;;4995009;28;88026;-44
2023/10/27 13:40:52;;;;;;;;;;;17.60;66.00;;;;;;4991172;28;87361;-44
2023/10/27 13:43:20;;;;;;;;;;;17.60;66.00;;;;;;4990500;28;88066;-44
2023/10/27 13:45:46;;;;;;;;;;;17.60;66.00;;;;;;4992867;28;87192;-44
2023/10/27 13:48:12;;;;;;;;;;;17.60;66.00;;;;;;4989813;28;87621;-43
2023/10/27 13:50:37;;;;;;;;;;;17.60;66.00;;;;;;4992879;28;88022;-44
2023/10/27 13:53:03;;;;;;;;;;;17.60;66.10;;;;;;4994568;28;86898;-45
2023/10/27 13:55:28;;;;;;;;;;;17.60;66.10;;;;;;4991566;28;87119;-44
2023/10/27 13:57:55;;;;;;;;;;;17.60;66.10;;;;;;4989931;28;87938;-44
2023/10/27 14:00:26;;;;;;;;;;;17.60;66.00;;;;;;4993981;28;88081;-44
2023/10/27 14:02:52;;;;;;;;;;;17.60;66.00;;;;;;4989571;28;89548;-45
2023/10/27 14:05:18;;;;;;;;;;;17.60;66.00;;;;;;4988885;28;87163;-44
2023/10/27 14:07:43;;;;;;;;;;;17.60;65.90;;;;;;4990721;28;87435;-45
2023/10/27 14:10:09;;;;;;;;;;;17.60;65.90;;;;;;4993044;28;88477;-46
2023/10/27 14:12:34;;;;;;;;;;;17.60;65.90;;;;;;4988093;28;87395;-45